Floyd, New Mexico
Current Conditions -  °F | °C
As of 3:07 PM on Monday 20 Oct 2014 (Local Time) from K4MR Reporting Station
Broken Clouds Broken Clouds  
Wind Chill: 73°   Ceiling: 5500
Heat Index: 73°   Visibility: 10mi
Dew Point: 48°   Wind: 18mph
Humidity: 41%   Direction: 160°SSE
Pressure: 30.1"   Gusts: 28mph
Location:  34.21°N, 103.58°W
Report Text: K4MR 202107Z AUTO 16016G24KT 10SM BKN055 23/09 A3010 RMK AO2 WSHFT 04 LTG DSNT NE AND W-NW
Loading
Personal Weather Stations






























Interactive Weather Map
Tropical Storm Tracking
New forecast layout! Learn more

10-Day Weather Forecast

Advertisements
Track Severe Weather on mobile